• Join FlightAware (Why Join?)
  • Login
  • US Flag 
10:21AM EST


 

Airport Tracker/Info


-or-


 

Live Flight TrackerFlight Track Log ✈ EJM826 ✈ 15-Dec-2013 ✈ KHOU - KIAH

Flight Track Log - Related Links

Times and Time Zones

All times are in EST time to prevent confusion due to time zone crossing. See the EJM826 flight status page for this flight to view local times or setup timezone preferences in your user account.

Time Position Orientation Groundspeed Altitude Reporting Facility
EST Latitude Longitude Course Direction KTS MPH feet Rate Location/Type
11:29AM 29.6603 -95.2619 46° Northeast 156 180 800  Level Houston Center
11:30AM 29.6961 -95.2192 46° Northeast 198 228 1,900 540 Climbing Houston Center
11:31AM 29.7286 -95.1808 46° Northeast 197 227 2,000 60 Climbing Houston Center
11:31AM 29.7378 -95.1708 43° Northeast 209 241 2,000 -120 Level Houston Center
11:32AM 29.7769 -95.1222 47° Northeast 205 236 1,900 -120 Descending Houston Center
11:32AM 29.7775 -95.1225 337° Northwest 198 228 1,900 60 Level Houston Center
11:33AM 29.8147 -95.0761 47° Northeast 202 232 2,000 60 Climbing Houston Center
11:33AM 29.8150 -95.0747 77° East 200 230 2,000 -240 Level Houston Center
11:34AM 29.8542 -95.0372 40° Northeast 189 217 1,800 -180 Descending Houston Center
11:35AM 29.9056 -95.0322 North 186 214 1,700 -120 Descending Houston Center
11:35AM 29.9028 -95.0319 175° South 186 214 1,700 180 Level Houston Center
11:36AM 29.9475 -95.0775 319° Northwest 200 230 1,900 180 Climbing Houston Center
11:36AM 29.9433 -95.0703 124° Southeast 189 217 1,900  Level Houston Center
11:37AM 29.9756 -95.1297 302° West 198 228 1,900  Level Houston Center
11:37AM 29.9736 -95.1228 108° East 200 230 1,900 -240 Level Houston Center
11:38AM 29.9764 -95.1850 273° West 184 212 1,700 -240 Descending Houston Center
11:38AM 29.9761 -95.1939 268° West 190 219 1,700 -600 Level Houston Center
11:39AM 29.9772 -95.2503 271° West 184 212 1,000 -780 Descending Houston Center
11:40AM 29.9781 -95.2933 271° West 143 165 300 -780 Descending Houston Center
11:40AM 29.9769 -95.2997 259° West 172 198 200 -540 Descending Houston Center